CheckWX is a tool to help pilots better visualize weather data.  It is not intended as a substitute for an official pre-flight weather briefing.

15:30:44 UTC

PAMR METAR
Merrill Field Airport
Anchorage, Alaska, USA
Current

38 mins ago

PAMR 171453Z 00000KT 10SM FEW040 OVC085 01/M02 A2905 RMK AO2 RAE45 SLP838 P0000 60000 T00111017 58001
Observed
Oct-17 @ 14:53 UTC
Visibility
10 SM
Flight Rules
VFR
Cloud Levels
  • Few at 4,000' AGL
  • Overcast at 8,500' AGL
Temperature
C / 34°F
Dewpoint
-2°C / 28°F
Humidity
81%
Altimeter
29.05" Hg
Pressure
983.72 hPa
Current Rain
0.01"
Previous

2 hours ago

PAMR 171353Z 00000KT 10SM -RA FEW038 BKN060 OVC090 01/M02 A2905 RMK AO2 SLP839 P0000 T00111017
Observed
Oct-17 @ 13:53 UTC
Visibility
10 SM
Flight Rules
VFR
Conditions
Light Rain
Cloud Levels
  • Few at 3,800' AGL
  • Broken at 6,000' AGL
  • Overcast at 9,000' AGL
Temperature
C / 34°F
Dewpoint
-2°C / 28°F
Humidity
81%
Altimeter
29.05" Hg
Pressure
983.72 hPa
Current Rain
0.01"
Previous

3 hours ago

PAMR 171253Z 02003KT 10SM -RA BKN050 OVC075 01/M02 A2905 RMK AO2 SLP839 P0000 T00111017
Observed
Oct-17 @ 12:53 UTC
Wind
  • 020° at 3 KTS
Visibility
10 SM
Flight Rules
VFR
Conditions
Light Rain
Cloud Levels
  • Broken at 5,000' AGL
  • Overcast at 7,500' AGL
Temperature
C / 34°F
Dewpoint
-2°C / 28°F
Humidity
81%
Altimeter
29.05" Hg
Pressure
983.72 hPa
Current Rain
0.01"